Terminal Aerodrome Forecast
Issued by NWS

Home | Current Version | Previous Version | Text Only | Print | Product List | Glossary On
Versions: 1 2 3 4 5 6 7 8 9 10 11 12 13 14
000
FTUS42 KGSP 300925 AAA
TAFGMU
TAF AMD
KGMU 300925Z 3009/3106 19007KT P6SM -SHRA SCT030 OVC050
      TEMPO 3010/3014 5SM -SHRA BR SCT015 BKN030
     FM301400 24007KT P6SM OVC015
     FM301600 25007KT P6SM SCT025
     FM301800 27007KT P6SM SCT250
     FM302200 31007KT P6SM FEW250=

USA.gov is the U.S. government's official web portal to all federal, state and local government web resources and services.